Time;durP1;ratioP1;P1;durP2;ratioP2;P2;SDS_P1;SDS_P2;PMS_P1;PMS_P2;Temp;Humidity;BMP_temperature;BMP_pressure;BME280_temperature;BME280_humidity;BME280_pressure;Samples;Min_cycle;Max_cycle;Signal;HPM_P1;HPM_P2
2022/02/06 00:02:00;;;;;;;2.37;1.10;;;10.80;99.90;;;;;;5030459;28;20182;-78
2022/02/06 00:04:26;;;;;;;2.88;1.10;;;10.70;99.90;;;;;;5021053;28;20233;-79
2022/02/06 00:06:53;;;;;;;2.13;0.90;;;10.60;99.90;;;;;;5032619;28;20217;-80
2022/02/06 00:09:19;;;;;;;2.45;0.90;;;10.60;99.90;;;;;;5035091;28;20284;-80
2022/02/06 00:11:45;;;;;;;3.45;0.85;;;10.60;99.90;;;;;;5030370;28;20317;-79
2022/02/06 00:14:10;;;;;;;4.03;0.83;;;10.50;99.90;;;;;;5030742;28;20517;-79
2022/02/06 00:16:36;;;;;;;3.20;0.90;;;10.40;99.90;;;;;;5021757;28;20169;-80
2022/02/06 00:19:02;;;;;;;2.13;0.80;;;10.40;99.90;;;;;;5041013;28;20198;-79
2022/02/06 00:21:33;;;;;;;1.67;0.90;;;10.40;99.90;;;;;;5030490;28;20626;-79
2022/02/06 00:24:00;;;;;;;1.90;0.70;;;10.30;99.90;;;;;;5023936;28;20753;-80
2022/02/06 00:29:10;;;;;;;3.25;1.00;;;10.20;99.90;;;;;;5025723;28;20277;-79
2022/02/06 00:31:51;;;;;;;4.22;1.05;;;10.20;99.90;;;;;;5018698;28;20182;-79
2022/02/06 00:39:46;;;;;;;2.80;0.90;;;10.20;99.90;;;;;;5021617;28;20543;-80
2022/02/06 00:42:12;;;;;;;1.60;0.80;;;10.20;99.90;;;;;;5026058;28;20169;-79
2022/02/06 00:44:38;;;;;;;2.70;0.83;;;10.20;99.90;;;;;;5024426;28;20186;-79
2022/02/06 00:47:04;;;;;;;3.35;0.93;;;10.20;99.90;;;;;;5020273;28;20249;-79
2022/02/06 00:49:31;;;;;;;3.58;0.73;;;10.20;99.90;;;;;;5024173;28;20221;-78
2022/02/06 00:52:13;;;;;;;3.88;0.85;;;10.20;99.90;;;;;;5007309;28;20186;-78
2022/02/06 00:54:39;;;;;;;4.22;0.90;;;10.30;99.90;;;;;;5023428;28;20256;-79
2022/02/06 00:57:06;;;;;;;1.77;0.90;;;10.30;99.90;;;;;;5021811;28;20369;-80
2022/02/06 00:59:32;;;;;;;2.85;0.95;;;10.30;99.90;;;;;;5024736;28;20652;-79
2022/02/06 01:01:58;;;;;;;4.27;1.10;;;10.40;99.90;;;;;;5025771;28;20170;-80
2022/02/06 01:04:23;;;;;;;4.55;1.08;;;10.40;99.90;;;;;;5023896;28;20618;-80
2022/02/06 01:06:49;;;;;;;3.83;1.03;;;10.40;99.90;;;;;;5018461;28;20191;-79
2022/02/06 01:09:17;;;;;;;2.70;0.80;;;10.50;99.90;;;;;;5029356;28;20213;-79
2022/02/06 01:11:43;;;;;;;3.47;1.15;;;10.50;99.90;;;;;;5022644;28;20182;-79
2022/02/06 01:14:22;;;;;;;2.22;1.00;;;10.50;99.90;;;;;;5030180;28;20202;-79
2022/02/06 01:17:02;;;;;;;3.70;1.08;;;10.50;99.90;;;;;;5026008;28;20178;-79
2022/02/06 01:19:38;;;;;;;3.90;1.20;;;10.60;99.90;;;;;;5031300;28;20198;-79
2022/02/06 01:22:08;;;;;;;5.22;1.52;;;10.60;99.90;;;;;;5028540;28;20185;-78
2022/02/06 01:27:24;;;;;;;3.47;1.07;;;10.70;99.90;;;;;;5021534;28;20209;-79
2022/02/06 01:32:18;;;;;;;7.18;1.25;;;10.70;99.90;;;;;;5024298;28;20189;-79
2022/02/06 01:37:25;;;;;;;11.10;1.70;;;10.80;99.90;;;;;;5021157;28;20174;-78
2022/02/06 01:42:28;;;;;;;2.92;0.90;;;10.80;99.90;;;;;;5023463;28;20185;-79
2022/02/06 02:04:16;;;;;;;4.47;1.73;;;10.80;99.90;;;;;;5052517;28;20189;-79
2022/02/06 02:07:00;;;;;;;5.93;1.10;;;10.90;99.90;;;;;;5056327;28;20173;-79
2022/02/06 02:28:49;;;;;;;4.97;1.30;;;11.00;99.90;;;;;;5024343;28;20169;-79
2022/02/06 02:45:11;;;;;;;2.90;1.13;;;11.10;99.90;;;;;;5021714;28;20268;-80
2022/02/06 02:47:39;;;;;;;3.25;1.00;;;11.10;99.90;;;;;;5022080;28;20174;-79
2022/02/06 02:50:12;;;;;;;5.97;2.15;;;11.10;99.90;;;;;;5021049;28;20216;-80
2022/02/06 02:57:58;;;;;;;3.00;1.02;;;11.20;99.90;;;;;;5019784;28;20281;-80
2022/02/06 03:00:40;;;;;;;3.88;1.02;;;11.20;99.90;;;;;;5020221;28;20300;-78
2022/02/06 03:05:34;;;;;;;5.88;1.23;;;11.20;99.90;;;;;;5024024;28;20178;-79
2022/02/06 03:08:04;;;;;;;3.65;1.00;;;11.20;99.90;;;;;;5029040;28;20179;-80
2022/02/06 03:10:32;;;;;;;3.00;1.05;;;11.20;99.90;;;;;;5027452;28;20201;-80
2022/02/06 03:13:00;;;;;;;4.45;1.13;;;11.20;99.90;;;;;;5027653;28;20181;-79
2022/02/06 03:18:02;;;;;;;4.43;1.50;;;11.10;99.90;;;;;;5030010;28;20185;-80
2022/02/06 03:20:29;;;;;;;3.25;1.00;;;11.10;99.90;;;;;;5027030;28;20556;-80
2022/02/06 03:22:55;;;;;;;4.15;1.92;;;11.10;99.90;;;;;;5048682;28;20805;-79
2022/02/06 03:25:22;;;;;;;4.10;1.30;;;11.10;99.90;;;;;;5033634;28;20224;-79
2022/02/06 03:27:48;;;;;;;2.20;0.80;;;11.00;99.90;;;;;;5033682;28;20191;-79
2022/02/06 03:30:14;;;;;;;2.38;1.35;;;11.00;99.90;;;;;;5027896;28;20243;-79
2022/02/06 03:32:40;;;;;;;4.22;1.25;;;11.00;99.90;;;;;;5026576;28;20520;-79
2022/02/06 03:35:06;;;;;;;5.27;0.90;;;11.00;99.90;;;;;;5058871;28;20220;-79
2022/02/06 03:37:32;;;;;;;5.68;1.38;;;10.90;99.90;;;;;;5050174;28;20185;-79
2022/02/06 03:40:01;;;;;;;3.00;1.03;;;10.90;99.90;;;;;;5028733;28;20192;-79
2022/02/06 03:42:34;;;;;;;4.50;1.00;;;10.90;99.90;;;;;;5031840;28;20190;-79
2022/02/06 03:45:05;;;;;;;2.75;0.80;;;10.80;99.90;;;;;;5026116;28;20204;-79
2022/02/06 03:47:46;;;;;;;5.53;1.90;;;10.80;99.90;;;;;;5026976;28;20182;-79
2022/02/06 03:50:14;;;;;;;3.35;1.20;;;10.70;99.90;;;;;;5023021;28;20194;-79
2022/02/06 03:52:51;;;;;;;1.85;1.00;;;10.70;99.90;;;;;;5023539;28;20186;-78
2022/02/06 03:55:20;;;;;;;2.30;1.00;;;10.60;99.90;;;;;;5027025;28;20208;-79
2022/02/06 03:57:48;;;;;;;2.90;0.90;;;10.50;99.90;;;;;;5023085;28;20201;-79
2022/02/06 04:00:15;;;;;;;2.97;1.00;;;10.50;99.90;;;;;;5025316;28;20294;-78
2022/02/06 04:02:41;;;;;;;6.20;1.63;;;10.40;99.90;;;;;;5031111;28;20269;-79
2022/02/06 04:05:07;;;;;;;2.20;1.00;;;10.40;99.90;;;;;;5030254;28;20184;-78
2022/02/06 04:07:33;;;;;;;5.40;1.00;;;10.30;99.90;;;;;;5025788;28;20176;-79
2022/02/06 04:09:59;;;;;;;2.43;1.00;;;10.30;99.90;;;;;;5022220;28;20555;-79
2022/02/06 04:12:26;;;;;;;3.20;0.90;;;10.20;99.90;;;;;;5024599;28;20186;-78
2022/02/06 04:15:05;;;;;;;5.00;1.10;;;10.10;99.90;;;;;;5022486;28;20629;-78
2022/02/06 04:17:43;;;;;;;4.22;0.90;;;10.10;99.90;;;;;;5027003;28;20179;-79
2022/02/06 04:20:09;;;;;;;6.28;1.02;;;10.00;99.90;;;;;;5021467;28;20201;-79
2022/02/06 04:22:35;;;;;;;4.05;1.10;;;10.00;99.90;;;;;;5030412;28;20231;-78
2022/02/06 04:25:00;;;;;;;2.20;0.90;;;9.90;99.90;;;;;;5029775;28;20185;-78
2022/02/06 04:27:26;;;;;;;2.47;1.07;;;9.90;99.90;;;;;;5023795;28;20186;-79
2022/02/06 04:29:53;;;;;;;4.13;0.90;;;9.90;99.90;;;;;;5025070;28;20604;-78
2022/02/06 04:32:22;;;;;;;5.10;1.63;;;9.90;99.90;;;;;;5030895;28;20182;-78
2022/02/06 04:34:50;;;;;;;2.75;1.00;;;9.90;99.90;;;;;;5022232;28;20712;-79
2022/02/06 04:43:12;;;;;;;3.38;0.80;;;10.00;99.90;;;;;;5021394;28;20569;-79
2022/02/06 05:30:38;;;;;;;4.00;1.00;;;10.00;99.90;;;;;;5027284;28;20251;-78
2022/02/06 05:33:03;;;;;;;2.58;0.80;;;10.00;99.90;;;;;;5021775;28;20181;-78
2022/02/06 05:35:33;;;;;;;4.87;0.80;;;10.00;99.90;;;;;;5022295;28;20240;-78
2022/02/06 05:37:59;;;;;;;4.78;0.80;;;9.90;99.90;;;;;;5029425;28;20580;-78
2022/02/06 05:40:25;;;;;;;1.97;0.80;;;9.90;99.90;;;;;;5020302;28;20197;-78
2022/02/06 05:42:51;;;;;;;2.58;0.80;;;9.90;99.90;;;;;;5023058;28;20715;-79
2022/02/06 05:45:19;;;;;;;2.90;0.70;;;9.90;99.90;;;;;;5021947;28;20656;-78
2022/02/06 05:47:45;;;;;;;3.70;1.00;;;9.90;99.90;;;;;;5021776;28;20514;-78
2022/02/06 05:50:17;;;;;;;3.10;1.15;;;9.90;99.90;;;;;;5028928;28;20198;-78
2022/02/06 05:52:43;;;;;;;4.28;0.70;;;9.90;99.90;;;;;;5020934;28;20221;-79
2022/02/06 05:55:09;;;;;;;2.20;0.80;;;9.90;99.90;;;;;;5030076;28;20229;-79
2022/02/06 05:57:35;;;;;;;2.05;0.70;;;9.90;99.90;;;;;;5022518;28;20260;-78
2022/02/06 06:00:02;;;;;;;2.80;0.70;;;9.90;99.90;;;;;;5023272;28;20292;-78
2022/02/06 06:02:38;;;;;;;2.03;0.80;;;9.90;99.90;;;;;;5020385;28;20581;-79
2022/02/06 06:05:05;;;;;;;1.70;0.90;;;10.00;99.90;;;;;;5023303;28;20329;-79
2022/02/06 06:07:30;;;;;;;1.58;0.57;;;10.00;99.90;;;;;;5020624;28;20182;-78
2022/02/06 06:09:56;;;;;;;2.10;0.50;;;10.00;99.90;;;;;;5029469;28;20563;-78
2022/02/06 06:12:22;;;;;;;1.30;0.60;;;10.00;99.90;;;;;;5020324;28;20238;-78
2022/02/06 06:14:48;;;;;;;1.43;0.70;;;9.90;99.90;;;;;;5023680;28;20207;-79
2022/02/06 06:17:14;;;;;;;1.65;0.60;;;9.90;99.90;;;;;;5023380;28;20174;-78
2022/02/06 06:19:46;;;;;;;1.73;0.50;;;9.90;99.90;;;;;;5019953;28;20210;-79
2022/02/06 06:22:13;;;;;;;1.63;0.60;;;9.90;99.90;;;;;;5021492;28;20173;-78
2022/02/06 06:24:44;;;;;;;2.17;0.70;;;9.90;99.90;;;;;;5021197;28;20205;-78
2022/02/06 06:27:11;;;;;;;2.15;0.70;;;9.90;99.90;;;;;;5028283;28;20215;-78
2022/02/06 06:29:37;;;;;;;1.30;0.50;;;9.80;99.90;;;;;;5023316;28;20202;-79
2022/02/06 06:32:04;;;;;;;1.20;0.50;;;9.80;99.90;;;;;;5021754;28;20186;-79
2022/02/06 06:34:29;;;;;;;1.20;0.50;;;9.80;99.90;;;;;;5020164;28;20254;-79
2022/02/06 06:36:55;;;;;;;1.83;0.53;;;9.80;99.90;;;;;;5029095;28;20269;-79
2022/02/06 06:39:33;;;;;;;1.40;0.43;;;9.80;99.90;;;;;;5021326;28;20194;-79
2022/02/06 06:41:59;;;;;;;1.05;0.52;;;9.80;99.90;;;;;;5031001;28;20221;-78
2022/02/06 06:44:24;;;;;;;1.50;0.60;;;9.70;99.90;;;;;;5020163;28;20178;-79
2022/02/06 06:46:50;;;;;;;1.10;0.50;;;9.70;99.90;;;;;;5052484;28;20197;-79
2022/02/06 06:49:16;;;;;;;1.30;0.50;;;9.70;99.90;;;;;;5023706;28;20711;-78
2022/02/06 06:51:43;;;;;;;1.80;0.60;;;9.80;99.90;;;;;;5026812;28;20208;-78
2022/02/06 06:54:14;;;;;;;1.10;0.50;;;9.80;99.90;;;;;;5023397;28;20245;-78
2022/02/06 06:56:49;;;;;;;1.25;0.60;;;9.80;99.90;;;;;;5023790;28;20184;-78
2022/02/06 06:59:28;;;;;;;2.08;0.50;;;9.80;99.90;;;;;;5025578;28;20217;-79
2022/02/06 07:02:15;;;;;;;1.35;0.77;;;9.80;99.90;;;;;;5026001;28;20209;-79
2022/02/06 07:04:40;;;;;;;2.15;0.60;;;9.90;99.90;;;;;;5025526;28;20190;-79
2022/02/06 07:07:06;;;;;;;2.23;0.50;;;9.90;99.90;;;;;;5025294;28;20185;-79
2022/02/06 07:09:31;;;;;;;1.20;0.50;;;9.90;99.90;;;;;;5023990;28;20234;-79
2022/02/06 07:11:57;;;;;;;1.50;0.67;;;9.90;99.90;;;;;;5027066;28;20178;-79
2022/02/06 07:14:25;;;;;;;1.77;0.57;;;10.00;99.90;;;;;;5026593;28;20210;-79
2022/02/06 07:16:50;;;;;;;2.38;0.65;;;10.00;99.90;;;;;;5028142;28;20178;-79
2022/02/06 07:19:16;;;;;;;1.40;0.70;;;10.00;99.90;;;;;;5023593;28;20201;-79
2022/02/06 07:21:42;;;;;;;4.10;0.60;;;10.10;99.90;;;;;;5046254;28;20174;-80
2022/02/06 07:24:08;;;;;;;2.25;0.90;;;10.10;99.90;;;;;;5022280;28;20184;-79
2022/02/06 07:26:34;;;;;;;1.47;0.60;;;10.10;99.90;;;;;;5025921;28;20734;-79
2022/02/06 07:29:01;;;;;;;1.70;0.90;;;10.10;99.90;;;;;;5023339;28;20619;-78
2022/02/06 07:31:27;;;;;;;1.48;0.63;;;10.10;99.90;;;;;;5039462;28;20263;-78
2022/02/06 07:33:56;;;;;;;2.47;0.70;;;10.20;99.90;;;;;;5029184;28;20241;-78
2022/02/06 07:36:22;;;;;;;2.22;0.68;;;10.20;99.90;;;;;;5045471;28;20531;-78
2022/02/06 07:38:48;;;;;;;1.20;0.50;;;10.20;99.90;;;;;;5062727;28;20186;-79
2022/02/06 07:41:13;;;;;;;1.50;0.50;;;10.30;99.90;;;;;;5032503;28;20646;-79
2022/02/06 07:43:39;;;;;;;1.60;0.52;;;10.30;99.90;;;;;;5033463;28;20189;-79
2022/02/06 07:46:11;;;;;;;1.40;0.60;;;10.30;99.90;;;;;;5030074;28;20224;-79
2022/02/06 07:48:37;;;;;;;3.28;0.70;;;10.30;99.90;;;;;;5025556;28;20201;-79
2022/02/06 07:51:03;;;;;;;1.65;0.60;;;10.30;99.90;;;;;;5022994;28;20537;-78
2022/02/06 07:53:30;;;;;;;2.40;0.70;;;10.30;99.90;;;;;;5038940;28;20170;-79
2022/02/06 07:55:56;;;;;;;1.20;0.60;;;10.30;99.90;;;;;;5025802;28;20170;-79
2022/02/06 07:58:22;;;;;;;1.00;0.50;;;10.30;99.90;;;;;;5028025;28;20538;-78
2022/02/06 08:00:47;;;;;;;1.40;0.50;;;10.40;99.90;;;;;;5017247;28;20616;-78
2022/02/06 08:03:13;;;;;;;2.03;0.60;;;10.30;99.90;;;;;;5025187;28;21187;-79
2022/02/06 08:05:39;;;;;;;2.50;0.53;;;10.40;99.90;;;;;;5029390;28;20588;-79
2022/02/06 08:08:12;;;;;;;1.30;0.60;;;10.40;99.90;;;;;;5032649;28;20220;-79
2022/02/06 08:10:39;;;;;;;1.17;0.50;;;10.40;99.90;;;;;;5021726;28;20584;-79
2022/02/06 08:13:11;;;;;;;1.40;0.40;;;10.40;99.90;;;;;;5029001;28;20170;-79
2022/02/06 08:15:37;;;;;;;1.30;0.50;;;10.40;99.90;;;;;;5047235;28;20601;-79
2022/02/06 08:18:04;;;;;;;2.58;0.40;;;10.40;99.90;;;;;;5018769;28;20174;-79
2022/02/06 08:20:30;;;;;;;0.90;0.40;;;10.50;99.90;;;;;;5021883;28;20190;-79
2022/02/06 08:22:56;;;;;;;1.63;0.38;;;10.50;99.90;;;;;;5026518;28;20274;-77
2022/02/06 08:25:22;;;;;;;1.10;0.40;;;10.50;99.90;;;;;;5023003;28;20316;-77
2022/02/06 08:27:49;;;;;;;1.10;0.40;;;10.50;99.90;;;;;;5020080;28;20205;-75
2022/02/06 08:30:14;;;;;;;1.17;0.40;;;10.50;99.90;;;;;;5026303;28;20186;-76
2022/02/06 08:32:41;;;;;;;0.90;0.40;;;10.50;99.90;;;;;;5031503;28;20260;-76
2022/02/06 08:35:08;;;;;;;2.00;0.50;;;10.50;99.90;;;;;;5032558;28;20201;-76
2022/02/06 08:37:35;;;;;;;1.00;0.50;;;10.50;99.90;;;;;;5024066;28;20172;-76
2022/02/06 08:40:12;;;;;;;1.75;0.40;;;10.50;99.90;;;;;;5030150;28;20432;-76
2022/02/06 08:42:39;;;;;;;2.20;0.40;;;10.50;99.90;;;;;;5025989;28;20183;-76
2022/02/06 08:45:05;;;;;;;0.90;0.40;;;10.50;99.90;;;;;;5031526;28;20192;-76
2022/02/06 08:47:31;;;;;;;1.65;0.45;;;10.50;99.90;;;;;;5025031;28;20182;-76
2022/02/06 08:49:57;;;;;;;0.90;0.30;;;10.50;99.90;;;;;;5023816;28;20201;-76
2022/02/06 08:52:23;;;;;;;0.90;0.40;;;10.50;99.90;;;;;;5023244;28;20179;-76
2022/02/06 08:54:49;;;;;;;1.10;0.40;;;10.60;99.90;;;;;;5032257;28;20216;-76
2022/02/06 08:57:26;;;;;;;1.00;0.40;;;10.60;99.90;;;;;;5031856;28;20213;-76
2022/02/06 08:59:56;;;;;;;0.95;0.40;;;10.60;99.90;;;;;;5028527;28;20255;-76
2022/02/06 09:02:23;;;;;;;1.75;0.40;;;10.60;99.90;;;;;;5045719;28;20184;-76
2022/02/06 09:04:49;;;;;;;0.90;0.40;;;10.60;99.90;;;;;;5031726;28;20682;-77
2022/02/06 09:07:16;;;;;;;0.90;0.40;;;10.60;99.90;;;;;;5023075;28;20182;-76
2022/02/06 09:09:50;;;;;;;1.00;0.40;;;10.50;99.90;;;;;;5024598;28;20744;-76
2022/02/06 09:12:17;;;;;;;1.30;0.40;;;10.60;99.90;;;;;;5028649;28;20316;-76
2022/02/06 09:14:43;;;;;;;1.10;0.40;;;10.60;99.90;;;;;;5025209;28;20205;-77
2022/02/06 09:17:09;;;;;;;0.90;0.40;;;10.60;99.90;;;;;;5019933;28;20514;-77
2022/02/06 09:19:36;;;;;;;1.00;0.40;;;10.60;99.90;;;;;;5020533;28;20666;-77
2022/02/06 09:22:04;;;;;;;1.60;0.40;;;10.60;99.90;;;;;;5023313;28;20671;-76
2022/02/06 09:24:29;;;;;;;1.13;0.50;;;10.60;99.90;;;;;;5020791;28;20212;-76
2022/02/06 09:26:56;;;;;;;1.00;0.40;;;10.60;99.90;;;;;;5025839;28;20606;-77
2022/02/06 09:29:22;;;;;;;2.88;0.52;;;10.60;99.90;;;;;;5024749;28;20616;-77
2022/02/06 09:31:52;;;;;;;1.45;0.40;;;10.60;99.90;;;;;;5026142;28;20177;-76
2022/02/06 09:36:46;;;;;;;2.65;0.40;;;10.60;99.90;;;;;;5022478;28;20736;-76
2022/02/06 09:39:13;;;;;;;0.98;0.40;;;10.60;99.90;;;;;;5020201;28;20641;-76
2022/02/06 09:41:46;;;;;;;0.90;0.40;;;10.60;99.90;;;;;;5022463;28;20256;-76
2022/02/06 09:44:14;;;;;;;0.90;0.40;;;10.60;99.90;;;;;;5021693;28;20196;-76
2022/02/06 09:46:41;;;;;;;0.90;0.40;;;10.60;99.90;;;;;;5020126;28;20654;-76
2022/02/06 09:49:07;;;;;;;0.90;0.40;;;10.60;99.90;;;;;;5044875;28;20625;-76
2022/02/06 09:51:33;;;;;;;1.20;0.30;;;10.60;99.90;;;;;;5022103;28;20268;-76
2022/02/06 09:54:00;;;;;;;1.00;0.40;;;10.60;99.90;;;;;;5027161;28;20959;-76
2022/02/06 09:56:28;;;;;;;1.00;0.40;;;10.60;99.90;;;;;;5030380;28;20584;-76
2022/02/06 09:59:03;;;;;;;1.00;0.40;;;10.50;99.90;;;;;;5017850;28;20202;-76
2022/02/06 10:01:33;;;;;;;0.90;0.40;;;10.60;99.90;;;;;;5026701;28;20268;-76
2022/02/06 10:04:05;;;;;;;0.90;0.30;;;10.60;99.90;;;;;;5024242;28;20559;-76
2022/02/06 10:06:59;;;;;;;0.90;0.40;;;10.50;99.90;;;;;;5020374;28;20655;-76
2022/02/06 10:09:56;;;;;;;1.08;0.47;;;10.60;99.90;;;;;;5035114;28;20205;-75
2022/02/06 10:12:23;;;;;;;1.13;0.40;;;10.50;99.90;;;;;;5049038;28;20289;-77
2022/02/06 10:14:49;;;;;;;0.90;0.35;;;10.60;99.90;;;;;;5033795;28;20769;-76
2022/02/06 10:17:15;;;;;;;0.90;0.30;;;10.60;99.90;;;;;;5047482;28;20204;-78
2022/02/06 10:19:52;;;;;;;1.92;0.32;;;10.60;99.90;;;;;;5030322;28;20283;-77
2022/02/06 10:22:27;;;;;;;0.90;0.40;;;10.50;99.90;;;;;;5005112;28;20170;-77
2022/02/06 10:25:22;;;;;;;2.08;0.50;;;10.50;99.90;;;;;;5024427;28;20567;-76
2022/02/06 10:27:54;;;;;;;0.90;0.30;;;10.50;99.90;;;;;;5015141;28;20186;-76
2022/02/06 10:30:41;;;;;;;0.88;0.35;;;10.50;99.90;;;;;;5018719;28;20235;-77
2022/02/06 10:33:17;;;;;;;0.93;0.40;;;10.40;99.90;;;;;;5019944;28;20200;-77
2022/02/06 10:35:46;;;;;;;0.90;0.40;;;10.40;99.90;;;;;;5022826;28;20266;-77
2022/02/06 10:38:18;;;;;;;0.90;0.40;;;10.30;99.90;;;;;;5026573;28;20171;-76
2022/02/06 10:41:00;;;;;;;1.02;0.35;;;10.30;99.90;;;;;;5021956;28;20187;-76
2022/02/06 10:43:26;;;;;;;1.10;0.40;;;10.30;99.90;;;;;;5019092;28;20178;-76
2022/02/06 10:46:13;;;;;;;0.90;0.40;;;10.20;99.90;;;;;;5023004;28;20514;-77
2022/02/06 10:48:49;;;;;;;1.05;0.50;;;10.20;99.90;;;;;;5027246;28;20204;-76
2022/02/06 10:51:48;;;;;;;1.20;0.50;;;10.10;99.90;;;;;;5022523;28;20318;-76
2022/02/06 10:54:17;;;;;;;0.90;0.40;;;10.10;99.90;;;;;;5018769;28;20209;-76
2022/02/06 10:57:03;;;;;;;2.58;0.50;;;10.10;99.90;;;;;;5019686;28;20178;-76
2022/02/06 10:59:42;;;;;;;1.00;0.40;;;10.00;99.90;;;;;;5017604;28;20213;-76
2022/02/06 11:02:29;;;;;;;1.35;0.50;;;10.00;99.90;;;;;;5020142;28;20176;-77
2022/02/06 11:05:18;;;;;;;1.00;0.40;;;9.90;99.90;;;;;;5039889;28;20547;-77
2022/02/06 11:07:51;;;;;;;1.23;0.40;;;9.90;99.90;;;;;;4994298;28;20189;-77
2022/02/06 11:10:17;;;;;;;0.90;0.40;;;9.80;99.90;;;;;;5018369;28;20210;-77
2022/02/06 11:12:49;;;;;;;1.00;0.40;;;9.80;99.90;;;;;;5022791;28;20169;-77
2022/02/06 11:15:31;;;;;;;1.00;0.40;;;9.70;99.90;;;;;;5019545;28;20716;-77
2022/02/06 11:18:06;;;;;;;1.27;0.40;;;9.70;99.90;;;;;;5025018;28;20187;-77
2022/02/06 11:20:32;;;;;;;1.15;0.50;;;9.70;99.90;;;;;;5018513;28;20241;-77
2022/02/06 11:23:01;;;;;;;1.20;0.50;;;9.70;99.90;;;;;;5027889;28;20170;-77
2022/02/06 11:25:29;;;;;;;1.40;0.50;;;9.70;99.90;;;;;;5022675;28;20178;-77
2022/02/06 11:27:56;;;;;;;1.00;0.50;;;9.70;99.90;;;;;;5026812;28;20224;-79
2022/02/06 11:30:22;;;;;;;1.02;0.45;;;9.60;99.90;;;;;;5025534;28;20288;-78
2022/02/06 11:32:48;;;;;;;1.00;0.50;;;9.60;99.90;;;;;;5023523;28;20266;-78
2022/02/06 11:35:19;;;;;;;1.60;0.50;;;9.60;99.90;;;;;;5024738;28;20883;-78
2022/02/06 11:43:45;;;;;;;1.00;0.45;;;9.50;99.90;;;;;;5029200;28;20182;-76
2022/02/06 11:46:25;;;;;;;1.00;0.40;;;9.40;99.90;;;;;;5021641;28;20604;-77
2022/02/06 11:48:57;;;;;;;1.00;0.50;;;9.40;99.90;;;;;;5022545;28;20202;-76
2022/02/06 11:51:22;;;;;;;1.00;0.40;;;9.40;99.90;;;;;;5022425;28;20189;-77
2022/02/06 11:53:48;;;;;;;1.13;0.40;;;9.40;99.90;;;;;;5028234;28;20246;-76
2022/02/06 11:56:22;;;;;;;0.90;0.40;;;9.40;99.90;;;;;;5024092;28;20523;-76
2022/02/06 11:58:49;;;;;;;0.90;0.40;;;9.30;99.90;;;;;;5024075;28;20625;-77
2022/02/06 12:01:15;;;;;;;1.13;0.45;;;9.40;99.90;;;;;;5004456;28;20201;-76
2022/02/06 12:04:05;;;;;;;1.10;0.40;;;9.30;99.90;;;;;;5024450;28;20174;-77
2022/02/06 12:06:46;;;;;;;1.00;0.40;;;9.40;99.90;;;;;;5038730;28;20182;-77
2022/02/06 12:09:16;;;;;;;1.48;0.40;;;9.30;99.90;;;;;;5057066;28;20201;-77
2022/02/06 12:12:05;;;;;;;1.20;0.40;;;9.30;99.90;;;;;;5026515;28;20182;-76
2022/02/06 12:14:39;;;;;;;2.20;0.40;;;9.30;99.90;;;;;;5020164;28;20199;-77
2022/02/06 12:20:10;;;;;;;0.90;0.40;;;9.30;99.90;;;;;;5021577;28;20202;-77
2022/02/06 12:22:45;;;;;;;1.55;0.40;;;9.30;99.90;;;;;;5023407;28;20224;-77
2022/02/06 12:25:24;;;;;;;0.90;0.40;;;9.30;99.90;;;;;;5020188;28;20186;-76
2022/02/06 12:27:52;;;;;;;0.90;0.40;;;9.30;99.90;;;;;;5019869;28;20181;-76
2022/02/06 12:30:21;;;;;;;0.95;0.40;;;9.30;99.90;;;;;;5023672;28;20198;-76
2022/02/06 12:32:47;;;;;;;1.60;0.60;;;9.30;99.90;;;;;;5026640;28;20233;-76
2022/02/06 12:38:00;;;;;;;1.10;0.50;;;9.30;99.90;;;;;;5023997;28;20575;-75
2022/02/06 12:40:27;;;;;;;1.30;0.50;;;9.30;99.90;;;;;;5028942;28;20217;-74
2022/02/06 12:43:04;;;;;;;1.40;0.40;;;9.30;99.90;;;;;;5030393;28;20204;-75
2022/02/06 12:45:31;;;;;;;0.90;0.40;;;9.40;99.90;;;;;;5055733;28;20554;-76
2022/02/06 12:48:00;;;;;;;1.48;0.50;;;9.40;99.90;;;;;;5024492;28;20244;-76
2022/02/06 12:50:35;;;;;;;1.02;0.50;;;9.40;99.90;;;;;;5062332;28;20194;-75
2022/02/06 12:53:06;;;;;;;1.70;0.80;;;9.50;99.90;;;;;;5027798;28;20170;-75
2022/02/06 12:55:37;;;;;;;1.20;0.60;;;9.50;99.90;;;;;;5023270;28;20197;-75
2022/02/06 12:58:09;;;;;;;1.20;0.70;;;9.60;99.90;;;;;;5022194;28;20292;-76
2022/02/06 13:00:46;;;;;;;1.20;0.70;;;9.70;99.90;;;;;;5021492;28;20205;-76
2022/02/06 13:03:39;;;;;;;1.20;0.60;;;9.80;99.90;;;;;;5023086;28;20181;-76
2022/02/06 13:06:10;;;;;;;2.60;0.70;;;9.90;99.90;;;;;;5016599;28;20256;-76
2022/02/06 13:08:39;;;;;;;1.67;1.00;;;10.10;99.90;;;;;;5022235;28;20226;-76
2022/02/06 13:11:16;;;;;;;1.42;0.80;;;10.10;99.90;;;;;;5023008;28;20595;-75
2022/02/06 13:14:09;;;;;;;2.40;0.75;;;10.30;99.90;;;;;;5022273;28;20182;-76
2022/02/06 13:17:07;;;;;;;1.38;0.77;;;10.40;99.90;;;;;;5021542;28;20174;-76
2022/02/06 13:22:21;;;;;;;1.83;0.80;;;10.60;99.90;;;;;;5053218;28;20189;-76
2022/02/06 13:25:03;;;;;;;7.28;2.35;;;10.70;99.90;;;;;;5026643;28;20585;-76
2022/02/06 13:33:54;;;;;;;2.95;1.00;;;10.90;99.90;;;;;;5021412;28;20228;-77
2022/02/06 13:36:39;;;;;;;4.63;1.42;;;10.90;99.90;;;;;;5035496;28;20273;-77
2022/02/06 13:39:12;;;;;;;3.38;1.08;;;10.90;99.90;;;;;;5022492;28;20640;-77
2022/02/06 13:41:39;;;;;;;2.80;0.82;;;11.00;99.90;;;;;;5019622;28;20600;-77
2022/02/06 13:44:18;;;;;;;2.28;0.63;;;10.90;99.90;;;;;;5024320;28;20253;-77
2022/02/06 13:46:45;;;;;;;1.40;0.70;;;10.70;99.90;;;;;;5021608;28;20231;-76
2022/02/06 13:49:14;;;;;;;1.55;0.70;;;10.70;99.90;;;;;;5020271;28;20205;-78
2022/02/06 13:54:08;;;;;;;1.10;0.50;;;10.40;99.90;;;;;;5022361;28;20201;-76
2022/02/06 13:56:35;;;;;;;2.10;0.90;;;10.30;99.90;;;;;;5019856;28;20182;-76
2022/02/06 13:59:07;;;;;;;1.60;0.70;;;10.20;99.90;;;;;;5028843;28;20304;-76
2022/02/06 14:01:41;;;;;;;1.60;0.70;;;10.10;99.90;;;;;;5019618;28;20175;-76
2022/02/06 14:04:32;;;;;;;1.90;0.60;;;10.00;99.90;;;;;;5023294;28;20177;-75
2022/02/06 14:07:23;;;;;;;1.85;0.60;;;9.80;99.90;;;;;;5005602;28;20240;-76
2022/02/06 14:10:13;;;;;;;1.20;0.57;;;9.70;99.90;;;;;;5041109;28;20205;-76
2022/02/06 14:12:51;;;;;;;1.85;0.57;;;9.60;99.90;;;;;;5020587;28;20193;-76
2022/02/06 14:15:25;;;;;;;1.52;0.70;;;9.60;99.90;;;;;;5020155;28;20241;-77
2022/02/06 14:17:54;;;;;;;2.80;0.90;;;9.50;99.90;;;;;;5023196;28;20178;-76
2022/02/06 14:20:25;;;;;;;2.08;1.30;;;9.40;99.90;;;;;;5020370;28;20610;-76
2022/02/06 14:23:04;;;;;;;2.50;0.90;;;9.40;99.90;;;;;;5028673;28;20186;-76
2022/02/06 14:25:36;;;;;;;1.42;0.80;;;9.30;99.90;;;;;;5022638;28;20594;-77
2022/02/06 14:28:26;;;;;;;1.70;0.75;;;9.30;99.90;;;;;;5028143;28;20177;-77
2022/02/06 14:30:53;;;;;;;2.33;0.90;;;9.30;99.90;;;;;;5049597;28;20198;-77
2022/02/06 14:33:21;;;;;;;1.48;0.80;;;9.20;99.90;;;;;;5021494;28;20649;-76
2022/02/06 14:36:16;;;;;;;2.50;1.10;;;9.20;99.90;;;;;;5021923;28;20297;-78
2022/02/06 14:38:51;;;;;;;2.17;1.33;;;9.20;99.90;;;;;;5019116;28;20206;-78
2022/02/06 14:41:24;;;;;;;1.40;0.85;;;9.20;99.90;;;;;;5019789;28;20177;-77
2022/02/06 14:43:59;;;;;;;2.60;1.17;;;9.20;99.90;;;;;;5028938;28;20188;-77
2022/02/06 14:46:29;;;;;;;1.90;0.82;;;9.10;99.90;;;;;;5019178;28;20173;-77
2022/02/06 14:48:56;;;;;;;1.50;0.70;;;9.10;99.90;;;;;;5025749;28;20203;-77
2022/02/06 14:51:24;;;;;;;2.35;0.90;;;9.10;99.90;;;;;;5030365;28;20181;-78
2022/02/06 14:53:59;;;;;;;2.35;1.25;;;9.10;99.90;;;;;;5019315;28;20228;-78
2022/02/06 14:56:29;;;;;;;2.60;1.60;;;9.10;99.90;;;;;;5022874;28;20227;-77
2022/02/06 14:58:56;;;;;;;3.38;0.90;;;9.10;99.90;;;;;;5020672;28;20352;-77
2022/02/06 15:01:22;;;;;;;3.35;0.70;;;9.10;99.90;;;;;;5021103;28;20573;-77
2022/02/06 15:03:47;;;;;;;1.60;0.70;;;9.10;99.90;;;;;;5027483;28;20185;-76
2022/02/06 15:06:13;;;;;;;1.30;0.80;;;9.10;99.90;;;;;;5023581;28;20190;-77
2022/02/06 15:08:39;;;;;;;1.50;0.73;;;9.20;99.90;;;;;;5023967;28;20201;-76
2022/02/06 15:11:05;;;;;;;1.87;0.70;;;9.20;99.90;;;;;;5028639;28;20648;-77
2022/02/06 15:13:33;;;;;;;1.20;0.60;;;9.20;99.90;;;;;;5022508;28;20179;-77
2022/02/06 15:16:12;;;;;;;1.20;0.60;;;9.20;99.90;;;;;;5024873;28;20216;-77
2022/02/06 15:18:46;;;;;;;1.27;0.70;;;9.20;99.90;;;;;;5055642;28;20202;-77
2022/02/06 15:21:12;;;;;;;1.40;1.00;;;9.20;99.90;;;;;;5024346;28;20209;-77
2022/02/06 15:23:40;;;;;;;1.70;0.60;;;9.20;99.90;;;;;;5021154;28;20202;-76
2022/02/06 15:26:06;;;;;;;1.63;0.75;;;9.20;99.90;;;;;;5024547;28;20177;-77
2022/02/06 15:28:32;;;;;;;1.83;0.90;;;9.20;99.90;;;;;;5027319;28;20209;-76
2022/02/06 15:30:58;;;;;;;1.33;0.70;;;9.20;99.90;;;;;;5031026;28;20210;-76
2022/02/06 15:33:24;;;;;;;4.00;0.70;;;9.20;99.90;;;;;;5056853;28;20637;-76
2022/02/06 15:35:51;;;;;;;1.48;0.70;;;9.20;99.90;;;;;;5027233;28;20571;-76
2022/02/06 15:38:18;;;;;;;1.30;0.60;;;9.20;99.90;;;;;;5032758;28;20173;-76
2022/02/06 15:40:45;;;;;;;1.73;0.75;;;9.20;99.90;;;;;;5024220;28;20181;-76
2022/02/06 15:43:11;;;;;;;2.85;1.05;;;9.20;99.90;;;;;;5030430;28;20513;-76
2022/02/06 15:45:39;;;;;;;2.67;1.50;;;9.20;99.90;;;;;;5026772;28;20273;-77